Timeline UpdatesTrip UpdatesNews PostsPvt PostsTravel TipsAdmin PostsConv PostsFollowed PostsChat RequestsBlog PostsPNR Posts

Disclaimer
Search
 
 
Sat Apr 19, 2014 13:32:35 ISTHomeTrainsΣChainsAtlasPNRForumGalleryNewsFAQTripsMembersLoginFeedback
No Recent News for this Train
Other Trains in the News **new
Latest...
Permanent Augmentation of 1 3A coach wef 13/4/14
Fri Apr 04, 2014 (07:11PM)
⇐ Return Journey: Train# 11057

11058/Amritsar - Mumbai LTT (Pathankot) Express

Jan 01 2014 (10:27PM)
Change Departure Station:
Change Arrival Station:
Post a Train Travel TipPost a Train Travel Tip **new
Post a Comment/Question/Picture/VideoPost a Comment/Question/Picture/Video
Pantry/Catering
✕ NO Pantry Car
✓ Catering Avbl
RSA - Rake Sharing
No RSA.
Rake/Coach Composition
LOCO-SLR-RMS-S1-S2-S3-S4-S5-S6-S7-S8-B1-B2-A1-MILITARY-GEN-GEN-LDS-[SLR-S10-S9-B3. ; [SLR-S10-S9-B2] -> Is the Slip portion OF Dhule and attached to the main train at Chalisgaon.
Loco
ASR-UMB --> TKD WDM3A/WDP3A UMB-LTT --> GZB WAP-4/7
News    PNR    Forum    Time-Table    Availability    Fare Chart    Map    Arr/Dep History    Trips    Gallery    ΣChains    X/O    Timeline    
Travel Time: 1h 5m    1 halts    Distance: 84 km    Avg Speed: 77 km/hr
Type: Mail/Express
Zone: CR/Central
Departs @ 22:30 (Avg 14m late)
Platform# ???
SMTWTFS
Palwal/PWL 
Arrives @ 23:35 (Avg 24m late)
Platform# 1
SMTWTFS
Mathura Junction/MTJ 

1 halts. 9 intermediate Stations between Palwal and Mathura Junction

Show ALL intermediate Stations  Show Old Time-Table

#CodeStation NameX/OArrivesAvgDepartsAvgHaltPFDay#KmSpeedElevZoneAddress
1ASRAmritsar Junction (5)  -08:30+441-560.377233mNRAmritsar 143002, Punjab
2JNLJandiala (2)  08:45+1408:47+142m21-541.168238mNRJandiala, Punjab
3BEASBeas Junction (2)X  09:08+1309:10+132m21-517.361238mNRBeas, Punjab
4KREKartarpur (2)X  09:31+1109:33+112m11-495.873236mNRKartarpur, Punjab
5JUCJalandhar City Junction (5)X  09:45+1409:55+1510m21-481.218239mNRJalandhar 144001, Punjab
6JRCJalandhar Cantt. Junction (3)X  10:11+810:13+92m21-476.470239mNRNear Rama Mandi, Punjab
7PGWPhagwara Junction (3)  10:27+1010:29+112m11-460.154245mNRPhagwara, Punjab
8GRYGoraya (2)  10:40+1210:42+122m11-450.264240mNRGoraya, Punjab
9PHRPhillaur Junction (3)X  10:54+1110:56+112m11-437.533246mNRPhillaur, Punjab
10LDHLudhiana Junction (7)  11:20+511:30+1910m41-424.429246mNRLudhiana 141001, Punjab
11AHHAhmadgarh (1)X  12:23+1112:25+132m11-399.079256mNRAhmedgarh, Punjab
12METMalerkotla (2)X  12:40+1812:42+192m21-379.153248mNRMalerkotla., Punjab
13DUIDhuri Junction (4)  13:01+2113:05+224m--1-362.377248mNRDhuri, Punjab
14NBANabha (1)  13:26+3313:28+352m11-335.470250mNRNabha, Punjab
15PTAPatiala (4)X  13:50+3913:53+443m11-309.535256mNRPatiala, Punjab
16RPJRajpura Junction (3)O  14:35+3314:37+342m21-284.765272mNRNH-1, Punjab
17UBCAmbala City (3)XO  14:56+3214:58+332m11-264.221273mNRNH-1, Haryana
18UMBAmbala Cantt. Junction (7)XO15:20+2515:50+1330m11-256.663278mNRAmbala 133001, Haryana
19SHDMShahbad Markanda (2)  16:09+3216:11+322m11-236.763267mNRShahabad Markanda, Haryana
20KKDEKurukshetra Junction (3)X  16:32+3316:34+342m21-214.560260mNRKurukshetra, Haryana
21NLKRNilokheriX  16:51+3216:53+322m--1-197.534254mNRNilokheri, Haryana
22TRRTaraori (2)  17:00+3217:02+322m21-193.652255mNRTaraori, Haryana
23KUNKarnal (3)  17:16+3117:18+312m11-181.566253mNRKarnal, Haryana
24GRAGharaunda (2)  17:34+3017:36+312m11-164.056244mNRGharaunda, Haryana
25PNPPanipat Junction (5)X  17:54+2817:56+282m21-147.060235mNRPanipat, Haryana
26SMKSamalkha (3)  18:13+2718:15+272m11-130.157229mNRSamalkha, Haryana
27GNUGanaur  18:28+2618:30+272m--1-117.860222mNRGanaur, Haryana
28SNPSonipat (3)  18:46+3218:48+322m11-101.948225mNRSonipat, Haryana
29RDDERathdhana (2)X  19:01+3119:03+312m--1-91.550223mNRSonipat, Haryana
30NURNarela (2)  19:11+3019:13+302m--1-84.859222mNRNarela, Delhi NCT
31ANDIAdarsh Nagar (2)  19:30+3119:32+312m11-68.121214mNRShalimar Bagh, Delhi NCT
32SZMDelhi Sabzi Mandi (2)  19:51+2619:53+282m31-61.59220mNRGulabi Bagh, Delhi NCT
33NDLSNew Delhi (16)X  20:20+2420:50+1830m41-57.434215mNRAjmeri Gate/Paharganj, Delhi NCT
34NZMDelhi Hazrat Nizamuddin (7)X  21:03+2521:05+262m41-50.057209mNRNizamuddin East/Sarai KaleKhan Bus Terminal, Delhi NCT
35FDBFaridabad (4)X  21:27+2921:29+302m31-29.237206mNRFaridabad, Haryana
36BVHBallabgarh (5)O  21:42+2221:44+232m--1-21.229203mNRFaridabad, Haryana
37PWL»Palwal (8)»  22:28+1222:30+142m--10.085200mNRPalwal, Haryana
38KSVKosi Kalan (3)  23:00+2023:02+202m2142.575189mNCRKosi Kalan, Uttar Pradesh
39MTJ•Mathura Junction (10)•  23:35+2423:40+265m1183.956179mNCRMathura, Uttar Pradesh
40RKMRaja Ki Mandi (4)X  00:33+3100:35+312m22133.612170mNCRAgra, Uttar Pradesh
41AGCAgra Cantt. (6)X  00:55+2501:05+3010m12137.688174mNCRAgra, Uttar Pradesh
42DHODholpur Junction (3)X  01:41+4901:43+502m22190.273177mNCRDholpur, Rajasthan
43MRAMorena (3)X  02:05+5202:07+532m12217.054176mNCRMorena, Madhya Pradesh
44GWLGwalior Junction (4)X  02:50+5102:58+508m12255.677214mNCRGwalior, Madhya Pradesh
45DBADabra (3)X  03:31+5603:33+572m22297.949204mNCRDabra(District-Gwalior), Madhya Pradesh
46SORSonagirXO  03:56+5203:58+542m--2316.746211mNCRDatia, Madhya Pradesh
47DAADatia (2)X  04:13+5504:15+552m22328.343264mNCRDatia, Madhya Pradesh
48JHSJhansi Junction (7)X  04:50+4505:00+4910m52353.367259mNCRJhansi, Uttar Pradesh
49BABBabina (3)X  05:23+5805:25+592m12378.852285mNCRBabina, Uttar Pradesh
50BZYBasai (3)X  05:39+5905:41+1:002m12390.951287mNCR07522289600(Gate ManMob. - 9452701575), Madhya Pradesh
51TBTTalbahat (4)X  05:56+5905:58+1:032m12403.758314mNCRKhaniyadhana Station Rd, Madhya Pradesh
52LARLalitpur (3)  06:39+5506:41+562m22443.650373mNCRLalitpur, Uttar Pradesh
53JLNJakhalaun (3)  07:01+5207:03+532m22460.499394mNCRLalitpur(05176-272220), Uttar Pradesh
54DUADhaura (3)XO  07:10+5407:12+572m--2472.020407mNCRDhaura Tanda, Madhya Pradesh
55BINABina Junction (5)X  08:55+1709:00+195m32506.569414mWCRJn Pt - KATNI/GUNA/ BPL/JHS, Madhya Pradesh
56MABAMandi Bamora (3)X  09:15+1509:17+162m22523.878413mWCRState Highway 14, Madhya Pradesh
57BAQGanj Basoda (4)X  09:39+1709:41+172m22552.369416mWCRVidisha, Madhya Pradesh
58GLGGulabhGanj (3)X  09:57+2309:59+252m22570.674432mWCRVidisha, Madhya Pradesh
59BHSVidisha (3)X  10:16+2110:18+212m22591.656432mWCRVidisha, Madhya Pradesh
60SCISanchi (2)X  10:28+2510:30+252m12601.066428mWCRRaisen, Madhya Pradesh
61BPLBhopal Junction (6)X  11:10+3011:15+365m12645.138497mWCRBhopal, Madhya Pradesh
62HBJBhopal HabibGanj (5)  11:25+4011:27+402m42651.464496mWCRHabibGanj, Madhya Pradesh
63MDDPMandi Dip (1)  11:42+4311:44+432m12667.562449mWCRMandideep, Madhya Pradesh
64ODGObaidulla Ganj  11:57+4411:59+442m12681.054450mWCRObaidullaganj Raisen Dist., Madhya Pradesh
65BNIBudniX  12:33+5312:35+532m12711.846311mWCRSehore MP 466445 Madhya pradesh, Madhya Pradesh
66HBDHoshangabad (4)  12:44+5312:46+542m22718.737308mWCRHoshangabad, Madhya Pradesh
67ETItarsi Junction (7)X  13:15+4913:20+555m22736.884329mWCRItarsi 461111, Madhya Pradesh
68BPFBanapura (2)  13:44+5813:46+582m22770.377314mWCRBanapura, Madhya Pradesh
69TBNTimarni (2)  14:08+5814:10+572m12798.561308mWCRTimarni, Madhya Pradesh
70HDHarda (3)  14:24+5714:26+562m12812.676289mWCRHarda, Madhya Pradesh
71KKNKhirkiya (2)X  14:51+5414:53+542m12844.280281mWCRSH 15, Madhya Pradesh
72CAERChhanera (2)  15:16+5315:18+532m22874.951283mWCRChhanera, Madhya Pradesh
73TLVTalvadiya (2)X  15:53+3815:55+372m22904.521308mWCRKhandwa, Madhya Pradesh
74KNWKhandwa Junction (5)X  16:40+2116:45+235m32920.378310mCRKhandwa, Madhya Pradesh
75NPNRNepanagar (2)  17:18+2517:20+252m--2962.968289mCRState Highway 27, Madhya Pradesh
76BAUBurhanpur (2)  17:43+2217:45+232m12989.193269mCRBurhanpur, Madhya Pradesh
77RVRaver (2)X  17:58+2718:00+272m--21009.376242mCRJalgaon, Maharashtra
78NBNimbhoraX  18:08+2818:10+282m121019.565229mCRJalgaon, Maharashtra
79SAVSavda (2)X  18:18+2918:20+292m221028.237220mCRSavda, Maharashtra
80BSLBhusaval Junction (8)X  18:45+2418:55+2810m421043.663208mCRBhusaval 425201, Maharashtra
81JLJalgaon Junction (4)X  19:18+3419:20+362m221067.887213mCRJalgaon 425001, Maharashtra
82PCPachora Junction (4)XO  19:53+3919:55+402m--21115.441264mCRPachora 424201, Maharashtra
83CSNChalisgaon Junction (3)X  21:00+1521:05+305m--21160.3101352mCRChalisgaon 424101, Maharashtra
84MMRManmad Junction (6)XO  21:45+4921:50+515m321227.867580mCRManmad 423104, Maharashtra
85NKNasik Road (3)  22:55+3923:00+385m321300.643563mCRNashik 422101, Maharashtra
86DVLDevlali (3)XO  23:08+3823:10+392m221306.330561mCRDist. Nashik 422401, Maharashtra
87IGPIgatpuri (4)X00:40+300:45+95m331351.243589mCRIgatpuri 422403, Maharashtra
88KYNKalyan Junction (8)  02:40+2302:45+215m631433.06710mCRKalyan 421301, Maharashtra
89TNAThane (10)  03:03+3703:05+382m831453.22210mCRThane, Maharashtra
90LTTMumbai Lokmanya Tilak Terminus (5)  03:50+19---31469.7-7mCRMumbai, Maharashtra
Scroll to Top
Scroll to Bottom